Time;durP1;ratioP1;P1;durP2;ratioP2;P2;SDS_P1;SDS_P2;PMS_P1;PMS_P2;Temp;Humidity;BMP_temperature;BMP_pressure;BME280_temperature;BME280_humidity;BME280_pressure;Samples;Min_cycle;Max_cycle;Signal;HPM_P1;HPM_P2
2022/08/18 00:00:32;;;;;;;1.20;1.20;;;;;;;22.38;77.24;95077.25;4341193;32;20405;-59
2022/08/18 00:03:14;;;;;;;1.63;1.57;;;;;;;22.40;77.52;95083.06;4333095;32;20209;-59
2022/08/18 00:05:44;;;;;;;1.27;1.27;;;;;;;22.36;77.51;95076.84;4344071;32;20207;-59
2022/08/18 00:08:10;;;;;;;1.10;1.10;;;;;;;22.44;77.45;95083.09;4337673;32;20196;-59
2022/08/18 00:10:40;;;;;;;1.67;1.57;;;;;;;22.35;77.53;95079.94;4334591;32;20226;-59
2022/08/18 00:13:07;;;;;;;1.33;1.23;;;;;;;22.36;77.49;95074.16;4329371;32;20188;-58
2022/08/18 00:15:32;;;;;;;1.10;1.10;;;;;;;22.34;77.89;95084.56;4353503;32;20235;-59
2022/08/18 00:17:59;;;;;;;1.10;1.10;;;;;;;22.27;78.77;95073.69;4361290;32;20251;-59
2022/08/18 00:20:25;;;;;;;1.10;1.10;;;;;;;22.25;77.79;95070.56;4361119;32;20247;-58
2022/08/18 00:22:55;;;;;;;0.90;0.87;;;;;;;22.33;78.45;95071.41;4353830;32;20236;-59
2022/08/18 00:25:23;;;;;;;1.70;1.63;;;;;;;22.25;78.10;95076.75;4373289;32;20184;-59
2022/08/18 00:27:50;;;;;;;1.40;1.40;;;;;;;22.25;77.61;95078.69;4353822;32;20203;-59
2022/08/18 00:30:25;;;;;;;2.53;1.70;;;;;;;22.32;77.37;95070.66;4330493;32;20284;-59
2022/08/18 00:32:58;;;;;;;1.33;1.33;;;;;;;22.33;76.82;95066.78;4368763;32;20184;-59
2022/08/18 00:35:29;;;;;;;0.93;0.93;;;;;;;22.26;78.16;95078.31;4335747;32;20189;-58
2022/08/18 00:37:58;;;;;;;1.60;1.50;;;;;;;22.20;78.65;95087.16;4362891;32;20188;-59
2022/08/18 00:40:35;;;;;;;0.73;0.73;;;;;;;22.18;77.58;95090.22;4317013;32;20186;-59
2022/08/18 00:43:03;;;;;;;0.90;0.90;;;;;;;21.97;79.73;95086.53;4351653;32;20267;-59
2022/08/18 00:45:38;;;;;;;0.73;0.73;;;;;;;22.14;77.69;95089.41;4351669;32;20189;-58
2022/08/18 00:48:09;;;;;;;1.43;1.43;;;;;;;22.22;77.21;95082.16;4336474;32;20211;-58
2022/08/18 00:50:50;;;;;;;1.40;1.40;;;;;;;22.19;78.06;95072.09;4323128;32;20185;-59
2022/08/18 00:53:30;;;;;;;1.23;1.23;;;;;;;22.23;76.60;95067.50;4358904;32;20180;-59
2022/08/18 00:56:02;;;;;;;1.07;1.07;;;;;;;22.32;76.02;95065.25;4354411;32;20248;-59
2022/08/18 00:58:33;;;;;;;1.17;1.17;;;;;;;22.27;77.17;95066.34;4354586;32;20207;-59
2022/08/18 01:01:22;;;;;;;1.70;1.60;;;;;;;22.28;77.22;95059.03;4339213;32;20192;-59
2022/08/18 01:03:53;;;;;;;0.77;0.77;;;;;;;22.27;77.40;95068.28;4345754;32;20260;-59
2022/08/18 01:06:31;;;;;;;6.50;1.10;;;;;;;22.33;76.15;95096.53;4350190;32;20193;-59
2022/08/18 01:08:59;;;;;;;0.77;0.77;;;;;;;22.24;77.61;95106.84;4355614;32;20196;-59
2022/08/18 01:11:24;;;;;;;0.90;0.90;;;;;;;22.25;76.76;95105.72;4343415;32;20215;-59
2022/08/18 01:13:52;;;;;;;1.20;1.20;;;;;;;22.27;76.63;95111.53;4332440;32;20283;-59
2022/08/18 01:22:03;;;;;;;0.90;0.90;;;;;;;22.07;77.14;95085.87;4310483;32;20201;-59
2022/08/18 01:27:19;;;;;;;1.17;1.17;;;;;;;22.20;77.07;95106.84;4297122;32;20264;-59
2022/08/18 01:29:47;;;;;;;0.47;0.47;;;;;;;22.12;77.18;95104.44;4337511;32;20207;-59
2022/08/18 01:32:19;;;;;;;1.90;1.60;;;;;;;22.04;78.29;95098.19;4361037;32;20225;-59
2022/08/18 01:34:48;;;;;;;1.40;1.30;;;;;;;22.12;77.20;95094.41;4333728;32;20190;-59
2022/08/18 01:37:22;;;;;;;0.93;0.93;;;;;;;22.10;77.89;95099.41;4352652;32;20280;-59
2022/08/18 01:39:47;;;;;;;0.87;0.87;;;;;;;22.12;76.93;95093.63;4333619;32;20217;-59
2022/08/18 01:42:21;;;;;;;1.60;1.50;;;;;;;22.20;76.59;95098.75;4315379;32;20228;-63
2022/08/18 01:44:50;;;;;;;1.40;1.40;;;;;;;22.18;76.53;95114.56;4316915;32;20200;-58
2022/08/18 01:47:17;;;;;;;1.57;1.30;;;;;;;22.20;76.34;95100.66;4355908;32;20189;-58
2022/08/18 01:49:43;;;;;;;1.47;1.40;;;;;;;22.05;77.59;95090.88;4345783;32;20196;-59
2022/08/18 01:52:18;;;;;;;3.97;1.40;;;;;;;21.98;77.67;95079.97;4367972;32;20223;-58
2022/08/18 01:54:46;;;;;;;1.43;1.43;;;;;;;21.94;77.67;95086.13;4316623;32;20189;-59
2022/08/18 01:57:13;;;;;;;0.70;0.70;;;;;;;21.99;76.93;95076.13;4353003;32;20190;-59
2022/08/18 01:59:42;;;;;;;1.30;1.30;;;;;;;22.04;76.69;95073.09;4332603;32;20249;-59
2022/08/18 02:02:13;;;;;;;2.10;2.00;;;;;;;22.00;77.08;95078.50;4350611;32;20190;-59
2022/08/18 02:04:51;;;;;;;0.63;0.63;;;;;;;22.03;76.83;95069.63;4329287;32;20246;-58
2022/08/18 02:07:19;;;;;;;1.07;1.07;;;;;;;21.99;76.92;95070.72;4344017;32;20305;-59
2022/08/18 02:09:46;;;;;;;0.73;0.73;;;;;;;21.94;76.87;95067.22;4335200;32;20200;-59
2022/08/18 02:12:15;;;;;;;1.47;1.37;;;;;;;21.94;77.32;95072.63;4352361;32;20228;-60
2022/08/18 02:14:43;;;;;;;0.93;0.93;;;;;;;21.81;77.84;95062.47;4350817;32;20235;-59
2022/08/18 02:17:12;;;;;;;1.80;1.33;;;;;;;21.91;77.56;95067.94;4327868;32;20316;-59
2022/08/18 02:19:41;;;;;;;1.57;1.47;;;;;;;21.90;77.12;95063.69;4315184;32;20177;-59
2022/08/18 02:22:12;;;;;;;1.20;0.83;;;;;;;21.91;76.92;95062.53;4336426;32;20248;-58
2022/08/18 02:24:39;;;;;;;1.20;1.20;;;;;;;21.95;76.68;95071.47;4294312;33;20220;-59
2022/08/18 02:27:11;;;;;;;0.70;0.70;;;;;;;21.95;76.63;95074.16;4349813;32;20253;-59
2022/08/18 02:29:42;;;;;;;2.20;1.30;;;;;;;21.82;77.74;95082.91;4343650;32;20201;-59
2022/08/18 02:32:09;;;;;;;0.90;0.90;;;;;;;21.95;76.35;95074.16;4335668;32;20208;-58
2022/08/18 02:34:35;;;;;;;0.90;0.90;;;;;;;21.92;76.99;95069.50;4341243;32;20264;-59
2022/08/18 02:37:05;;;;;;;1.67;1.57;;;;;;;21.94;76.60;95069.13;4341079;32;21455;-59
2022/08/18 02:39:36;;;;;;;1.53;1.47;;;;;;;21.91;76.65;95062.53;4340541;32;22557;-59
2022/08/18 02:42:06;;;;;;;1.33;1.23;;;;;;;21.95;76.17;95071.47;4346666;32;20254;-59
2022/08/18 02:44:33;;;;;;;1.23;1.23;;;;;;;21.89;76.42;95075.66;4335142;32;20205;-59
2022/08/18 02:47:00;;;;;;;1.07;1.07;;;;;;;21.91;76.45;95070.66;4298760;32;20204;-59
2022/08/18 02:49:28;;;;;;;0.70;0.70;;;;;;;21.88;76.52;95067.91;4308248;32;20244;-58
2022/08/18 02:51:55;;;;;;;0.77;0.77;;;;;;;21.97;76.04;95054.09;4332824;32;20214;-59
2022/08/18 02:54:23;;;;;;;1.03;1.03;;;;;;;21.97;76.02;95044.06;4332059;32;20185;-58
2022/08/18 02:56:51;;;;;;;0.90;0.90;;;;;;;21.90;76.13;95039.37;4342142;32;20204;-59
2022/08/18 02:59:26;;;;;;;1.10;1.10;;;;;;;21.91;76.10;95040.94;4324048;32;20216;-59
2022/08/18 03:01:59;;;;;;;0.90;0.90;;;;;;;21.79;76.81;95041.22;4340727;32;20197;-59
2022/08/18 03:04:27;;;;;;;0.97;0.90;;;;;;;21.79;76.40;95046.63;4311682;32;20193;-59
2022/08/18 03:06:57;;;;;;;0.50;0.50;;;;;;;21.78;76.18;95053.16;4330282;32;20245;-59
2022/08/18 03:09:24;;;;;;;0.63;0.63;;;;;;;21.83;76.22;95052.03;4322367;32;20335;-59
2022/08/18 03:11:54;;;;;;;1.40;1.30;;;;;;;21.88;75.68;95051.69;4332292;32;20189;-59
2022/08/18 03:14:21;;;;;;;3.20;1.10;;;;;;;21.85;75.76;95053.22;4312698;32;20200;-59
2022/08/18 03:16:48;;;;;;;0.93;0.93;;;;;;;21.83;75.92;95043.94;4337053;32;20201;-59
2022/08/18 03:19:15;;;;;;;1.73;1.73;;;;;;;21.78;76.23;95044.28;4334288;32;20216;-59
2022/08/18 03:21:44;;;;;;;0.77;0.77;;;;;;;21.81;75.90;95041.63;4332393;32;20193;-58
2022/08/18 03:24:11;;;;;;;2.70;1.40;;;;;;;21.86;75.66;95048.59;4302590;32;20189;-59
2022/08/18 03:26:43;;;;;;;1.17;1.17;;;;;;;21.78;76.00;95039.66;4296030;33;20194;-59
2022/08/18 03:29:13;;;;;;;1.20;1.20;;;;;;;21.72;76.52;95029.56;4290482;32;20211;-58
2022/08/18 03:31:43;;;;;;;1.23;1.23;;;;;;;21.71;76.26;95033.41;4324072;32;20260;-59
2022/08/18 03:34:14;;;;;;;0.70;0.70;;;;;;;21.73;75.93;95025.72;4311551;32;20197;-59
2022/08/18 03:36:41;;;;;;;1.10;1.10;;;;;;;21.73;75.81;95031.13;4339907;32;20196;-58
2022/08/18 03:39:11;;;;;;;1.30;1.20;;;;;;;21.70;76.01;95021.06;4336763;32;20255;-59
2022/08/18 03:41:40;;;;;;;2.20;1.53;;;;;;;21.65;76.23;95019.47;4318478;32;20248;-58
2022/08/18 03:44:07;;;;;;;0.93;0.93;;;;;;;21.58;76.81;95016.72;4279831;33;20216;-59
2022/08/18 03:46:33;;;;;;;0.83;0.83;;;;;;;21.65;76.12;95034.88;4327707;32;20224;-58
2022/08/18 03:49:00;;;;;;;0.97;0.97;;;;;;;21.70;75.82;95029.94;4326709;32;20201;-58
2022/08/18 03:51:30;;;;;;;0.80;0.80;;;;;;;21.72;75.69;95029.56;4325832;32;20189;-59
2022/08/18 03:54:01;;;;;;;2.03;1.07;;;;;;;21.74;75.27;95041.53;4340424;32;20212;-59
2022/08/18 03:56:38;;;;;;;1.07;1.07;;;;;;;21.71;75.72;95031.47;4316485;32;20232;-58
2022/08/18 03:59:10;;;;;;;0.53;0.53;;;;;;;21.68;75.70;95031.44;4323065;32;20185;-59
2022/08/18 04:01:40;;;;;;;1.10;1.10;;;;;;;21.77;75.07;95021.91;4343206;32;20193;-58
2022/08/18 04:04:11;;;;;;;2.73;1.07;;;;;;;21.71;75.72;95017.97;4314915;32;20228;-59
2022/08/18 04:06:48;;;;;;;0.77;0.77;;;;;;;21.80;74.98;95028.50;4292273;32;20193;-58
2022/08/18 04:09:16;;;;;;;2.50;1.00;;;;;;;21.78;74.97;95031.56;4309592;32;20193;-59
2022/08/18 04:11:47;;;;;;;1.13;1.03;;;;;;;21.74;75.06;95033.44;4328001;32;20209;-59
2022/08/18 04:14:15;;;;;;;1.20;1.20;;;;;;;21.76;75.14;95033.06;4337737;32;20205;-59
2022/08/18 04:16:54;;;;;;;1.20;1.20;;;;;;;21.76;75.05;95033.84;4343064;32;20189;-59
2022/08/18 04:19:20;;;;;;;1.93;1.40;;;;;;;21.72;75.19;95027.62;4321114;32;20185;-59
2022/08/18 04:21:50;;;;;;;0.80;0.80;;;;;;;21.74;74.78;95024.56;4312366;32;20245;-59
2022/08/18 04:24:17;;;;;;;0.63;0.63;;;;;;;21.69;75.14;95011.41;4319627;32;20261;-59
2022/08/18 04:26:46;;;;;;;0.53;0.53;;;;;;;21.59;75.61;95004.75;4338815;32;20197;-59
2022/08/18 04:29:16;;;;;;;1.50;1.40;;;;;;;21.66;75.27;95006.72;4315854;32;20235;-59
2022/08/18 04:31:43;;;;;;;1.20;1.20;;;;;;;21.59;75.64;94993.97;4311738;32;20215;-60
2022/08/18 04:34:09;;;;;;;1.83;1.43;;;;;;;21.56;75.67;94992.00;4300757;33;20204;-59
2022/08/18 04:36:36;;;;;;;4.47;1.63;;;;;;;21.59;75.59;95002.06;4315906;32;20197;-59
2022/08/18 04:39:09;;;;;;;1.50;1.40;;;;;;;21.59;75.36;94996.66;4317229;32;20300;-58
2022/08/18 04:41:40;;;;;;;0.83;0.83;;;;;;;21.57;75.91;94994.34;4303699;32;20311;-58
2022/08/18 04:44:08;;;;;;;1.20;1.20;;;;;;;21.63;75.49;94992.03;4335213;32;20239;-58
2022/08/18 04:46:51;;;;;;;1.07;1.07;;;;;;;21.64;75.24;94999.00;4336431;32;20189;-58
2022/08/18 04:49:21;;;;;;;1.23;1.07;;;;;;;21.62;75.47;95001.28;4337697;32;20197;-58
2022/08/18 04:54:37;;;;;;;7.77;1.67;;;;;;;;;;4334156;32;20228;-58
2022/08/18 04:57:17;;;;;;;0.90;0.90;;;;;;;21.56;75.45;94995.47;4349466;32;20216;-58
2022/08/18 04:59:47;;;;;;;0.80;0.80;;;;;;;21.60;75.36;95009.00;4309202;32;20239;-59
2022/08/18 05:02:14;;;;;;;1.10;1.03;;;;;;;21.45;76.67;95018.88;4342891;32;20186;-59
2022/08/18 05:04:49;;;;;;;0.70;0.70;;;;;;;21.59;75.69;95029.84;4319788;32;20225;-59
2022/08/18 05:07:26;;;;;;;1.47;1.47;;;;;;;21.58;75.73;95035.59;4325017;32;20194;-59
2022/08/18 05:09:53;;;;;;;0.97;0.97;;;;;;;21.57;76.12;95025.94;4342155;32;20239;-59
2022/08/18 05:12:21;;;;;;;1.07;0.97;;;;;;;21.41;77.03;95020.75;4320697;32;20198;-58
2022/08/18 05:14:47;;;;;;;1.37;1.33;;;;;;;21.43;76.70;95021.16;4323148;32;20280;-59
2022/08/18 05:17:16;;;;;;;0.77;0.77;;;;;;;21.41;77.38;95023.44;4329402;32;20193;-59
2022/08/18 05:19:43;;;;;;;0.90;0.90;;;;;;;21.53;76.50;95033.22;4338862;32;20239;-63
2022/08/18 05:22:09;;;;;;;1.40;1.40;;;;;;;21.46;76.83;95030.44;4344210;32;20185;-59
2022/08/18 05:24:36;;;;;;;1.07;1.07;;;;;;;21.45;77.00;95039.69;4302474;33;20323;-59
2022/08/18 05:27:03;;;;;;;2.23;0.90;;;;;;;21.54;75.85;95042.88;4339786;32;20322;-58
2022/08/18 05:29:36;;;;;;;0.90;0.90;;;;;;;21.53;76.17;95054.84;4321522;32;20216;-59
2022/08/18 05:32:06;;;;;;;1.00;1.00;;;;;;;21.53;76.50;95065.62;4334407;32;22019;-58
2022/08/18 05:34:34;;;;;;;1.77;1.60;;;;;;;21.65;75.20;95065.38;4324945;32;20413;-59
2022/08/18 05:37:46;;;;;;;1.80;1.70;;;;;;;21.61;76.08;95064.56;4341668;32;20201;-58
2022/08/18 05:40:14;;;;;;;1.10;1.03;;;;;;;21.67;75.88;95067.69;4293405;33;20249;-63
2022/08/18 05:42:48;;;;;;;1.30;1.23;;;;;;;21.67;75.73;95065.78;4291471;33;20290;-58
2022/08/18 05:45:16;;;;;;;1.50;1.40;;;;;;;21.57;76.40;95069.16;4284649;33;20218;-58
2022/08/18 05:47:43;;;;;;;5.73;1.30;;;;;;;21.54;76.50;95065.25;4301844;33;20214;-62
2022/08/18 05:50:38;;;;;;;1.40;1.40;;;;;;;21.64;76.14;95069.22;4298154;33;20317;-59
2022/08/18 05:53:17;;;;;;;1.40;1.40;;;;;;;21.57;76.80;95069.16;4291069;33;20209;-59
2022/08/18 05:58:48;;;;;;;0.90;0.90;;;;;;;21.72;76.59;95078.94;4335976;32;20252;-59
2022/08/18 06:01:37;;;;;;;0.97;0.97;;;;;;;21.79;74.73;95087.13;4344414;32;20202;-59
2022/08/18 06:04:25;;;;;;;2.77;1.47;;;;;;;21.86;74.31;95087.19;4310106;32;20306;-59
2022/08/18 06:06:54;;;;;;;0.87;0.87;;;;;;;21.84;74.83;95078.69;4329534;32;20189;-58
2022/08/18 06:09:35;;;;;;;1.10;1.10;;;;;;;22.00;73.75;95080.38;4341174;32;20193;-59
2022/08/18 06:12:24;;;;;;;1.13;1.13;;;;;;;21.90;74.60;95079.91;4298651;33;20223;-58
2022/08/18 06:15:24;;;;;;;1.47;1.37;;;;;;;21.87;75.40;95077.94;4308237;32;20255;-59
2022/08/18 06:18:25;;;;;;;1.50;1.40;;;;;;;21.85;75.79;95080.22;4359922;32;20194;-58
2022/08/18 06:21:25;;;;;;;1.30;0.97;;;;;;;21.92;74.55;95090.34;4340984;32;20250;-59
2022/08/18 06:24:27;;;;;;;0.60;0.60;;;;;;;21.94;74.87;95083.41;4353418;32;20197;-58
2022/08/18 06:27:18;;;;;;;1.50;1.50;;;;;;;21.97;74.51;95081.91;4280532;32;20208;-58
2022/08/18 06:30:31;;;;;;;0.97;0.97;;;;;;;22.01;73.87;95082.75;4353292;32;20194;-59
2022/08/18 06:33:12;;;;;;;1.00;1.00;;;;;;;22.05;74.46;95080.06;4272201;32;20190;-58
2022/08/18 06:35:59;;;;;;;0.80;0.80;;;;;;;22.02;74.17;95073.50;4297767;32;20193;-58
2022/08/18 06:38:44;;;;;;;0.90;0.90;;;;;;;22.01;74.23;95073.88;4351171;32;20196;-58
2022/08/18 06:41:44;;;;;;;1.53;1.43;;;;;;;21.95;74.98;95076.87;4327833;32;20216;-58
2022/08/18 06:44:20;;;;;;;1.70;1.60;;;;;;;21.98;74.62;95071.88;4329044;32;20246;-58
2022/08/18 06:47:14;;;;;;;1.37;1.37;;;;;;;22.03;74.03;95063.47;4325999;32;20354;-59
2022/08/18 06:49:54;;;;;;;0.80;0.80;;;;;;;22.01;75.36;95063.06;4297610;32;20240;-59
2022/08/18 06:52:45;;;;;;;3.80;1.10;;;;;;;22.08;73.92;95065.81;4300247;32;20224;-59
2022/08/18 06:55:17;;;;;;;1.47;1.47;;;;;;;22.19;73.19;95070.16;4324837;32;20194;-58
2022/08/18 06:58:02;;;;;;;0.70;0.70;;;;;;;22.21;73.71;95064.38;4355770;32;20217;-59
2022/08/18 07:00:33;;;;;;;0.50;0.50;;;;;;;22.24;73.72;95050.09;4354835;32;20211;-58
2022/08/18 07:03:20;;;;;;;0.77;0.77;;;;;;;22.25;73.48;95046.25;4351836;32;20191;-59
2022/08/18 07:06:32;;;;;;;0.90;0.90;;;;;;;22.19;74.41;95036.97;4307910;32;20204;-59
2022/08/18 07:09:19;;;;;;;1.40;1.30;;;;;;;22.25;73.83;95038.13;4356484;32;20184;-59
2022/08/18 07:12:08;;;;;;;0.77;0.77;;;;;;;22.31;73.38;95046.69;4358192;32;20189;-59
2022/08/18 07:14:49;;;;;;;1.13;1.13;;;;;;;22.31;73.62;95052.09;4344019;32;20231;-59
2022/08/18 07:17:37;;;;;;;1.30;1.30;;;;;;;22.32;73.40;95048.25;4356307;32;20192;-59
2022/08/18 07:20:25;;;;;;;0.80;0.80;;;;;;;22.35;73.63;95053.69;4356205;32;20349;-58
2022/08/18 07:22:59;;;;;;;1.33;1.23;;;;;;;22.36;73.19;95055.22;4341131;32;20188;-59
2022/08/18 07:25:35;;;;;;;0.87;0.87;;;;;;;22.32;73.75;95050.94;4367253;32;20195;-58
2022/08/18 07:28:01;;;;;;;0.73;0.73;;;;;;;22.35;73.22;95050.97;4340867;32;20254;-58
2022/08/18 07:30:37;;;;;;;2.00;1.23;;;;;;;22.28;73.87;95046.28;4357843;32;20184;-59
2022/08/18 07:33:24;;;;;;;0.97;0.97;;;;;;;22.31;73.94;95052.09;4282574;32;20312;-59
2022/08/18 07:35:56;;;;;;;1.63;1.53;;;;;;;22.32;74.13;95062.53;4345182;32;20228;-59
2022/08/18 07:38:43;;;;;;;0.60;0.60;;;;;;;22.35;73.53;95050.19;4309890;32;20259;-58
2022/08/18 07:41:38;;;;;;;3.83;1.13;;;;;;;22.28;74.01;95040.09;4337029;32;20235;-58
2022/08/18 07:44:37;;;;;;;0.37;0.37;;;;;;;22.33;73.54;95039.75;4361727;32;20207;-58
2022/08/18 07:47:11;;;;;;;0.80;0.80;;;;;;;22.37;73.02;95051.38;4337719;32;20229;-59
2022/08/18 07:49:45;;;;;;;1.03;1.03;;;;;;;22.45;73.21;95049.47;4346442;32;20192;-58
2022/08/18 07:52:29;;;;;;;1.70;1.60;;;;;;;22.35;74.23;95044.78;4330349;32;20302;-58
2022/08/18 07:55:14;;;;;;;1.13;1.13;;;;;;;22.30;73.09;95045.91;4353248;32;20211;-59
2022/08/18 07:57:57;;;;;;;1.60;1.50;;;;;;;22.38;73.26;95041.34;4334453;32;20205;-56
2022/08/18 08:00:52;;;;;;;1.53;1.43;;;;;;;22.44;73.64;95040.63;4346990;32;20211;-58
2022/08/18 08:03:40;;;;;;;1.83;1.77;;;;;;;22.41;73.70;95046.78;4310096;32;20335;-58
2022/08/18 08:06:43;;;;;;;1.40;1.40;;;;;;;22.48;73.79;95054.91;4312133;32;20228;-58
2022/08/18 08:10:02;;;;;;;0.83;0.83;;;;;;;22.51;73.72;95048.78;4313231;32;20215;-58
2022/08/18 08:12:50;;;;;;;1.37;1.37;;;;;;;22.56;73.39;95048.41;4285992;33;20182;-58
2022/08/18 08:15:29;;;;;;;1.57;1.57;;;;;;;22.59;72.12;95044.97;4277120;33;20299;-58
2022/08/18 08:18:16;;;;;;;1.10;1.10;;;;;;;22.54;72.64;95048.03;4287105;33;20209;-60
2022/08/18 08:20:53;;;;;;;1.87;1.77;;;;;;;22.61;72.57;95055.41;4264675;33;20269;-58
2022/08/18 08:23:35;;;;;;;1.20;1.17;;;;;;;22.66;71.95;95051.56;4260366;33;20305;-58
2022/08/18 08:26:35;;;;;;;1.50;1.40;;;;;;;22.68;71.72;95051.97;4249828;33;20186;-58
2022/08/18 08:29:39;;;;;;;1.13;1.13;;;;;;;22.74;71.23;95053.16;4289886;32;20197;-58
2022/08/18 08:32:37;;;;;;;1.90;1.80;;;;;;;22.77;70.72;95052.41;4326485;32;20181;-58
2022/08/18 08:35:18;;;;;;;1.17;1.17;;;;;;;22.79;71.81;95045.50;4308382;32;20241;-58
2022/08/18 08:37:52;;;;;;;1.93;1.83;;;;;;;22.76;72.17;95040.03;4326277;32;20200;-59
2022/08/18 08:40:43;;;;;;;2.00;1.50;;;;;;;22.71;72.98;95032.28;4296268;32;20300;-58
2022/08/18 08:43:21;;;;;;;1.77;1.67;;;;;;;22.74;72.17;95021.47;4343221;32;20196;-58
2022/08/18 08:46:36;;;;;;;1.27;1.27;;;;;;;22.70;71.95;95014.50;4348504;32;20189;-58
2022/08/18 08:49:31;;;;;;;1.10;1.10;;;;;;;22.58;72.87;95013.66;4298179;32;20192;-59
2022/08/18 08:52:12;;;;;;;3.07;1.80;;;;;;;22.71;72.54;95016.81;4323859;32;20182;-59
2022/08/18 08:54:46;;;;;;;1.37;1.37;;;;;;;22.73;72.56;95025.34;4344879;32;20204;-59
2022/08/18 08:57:15;;;;;;;2.27;2.10;;;;;;;22.88;71.74;95026.22;4357025;32;20211;-59
2022/08/18 08:59:46;;;;;;;1.00;1.00;;;;;;;22.41;72.07;95030.56;4324124;32;20247;-59
2022/08/18 09:02:26;;;;;;;1.47;1.47;;;;;;;22.53;72.24;95022.13;4370312;32;20241;-59
2022/08/18 09:05:26;;;;;;;1.30;1.20;;;;;;;22.42;72.21;95005.06;4337435;32;20200;-58
2022/08/18 09:08:20;;;;;;;1.77;1.70;;;;;;;22.72;71.46;95007.56;4350855;32;20255;-58
2022/08/18 09:11:29;;;;;;;1.10;1.10;;;;;;;22.75;71.20;94998.69;4323693;32;20274;-58
2022/08/18 09:14:32;;;;;;;1.10;1.10;;;;;;;22.84;70.96;94992.97;4345779;32;20204;-60
2022/08/18 09:17:39;;;;;;;1.40;1.40;;;;;;;22.82;70.83;94992.56;4333475;32;20207;-59
2022/08/18 09:21:03;;;;;;;3.17;2.27;;;;;;;22.86;70.44;94996.81;4344117;32;20193;-58
2022/08/18 09:23:38;;;;;;;2.20;1.37;;;;;;;22.86;69.94;95009.59;4252244;33;20194;-58
2022/08/18 09:26:40;;;;;;;1.43;1.43;;;;;;;22.71;69.99;95007.94;4341010;32;20239;-58
2022/08/18 09:29:47;;;;;;;1.00;1.00;;;;;;;22.75;69.72;95020.31;4340065;32;20188;-58
2022/08/18 09:32:21;;;;;;;1.83;1.67;;;;;;;22.72;68.27;95025.72;4338249;32;20293;-58
2022/08/18 09:35:16;;;;;;;1.73;1.67;;;;;;;22.58;67.35;95012.88;4351417;32;20196;-58
2022/08/18 09:41:32;;;;;;;1.97;1.87;;;;;;;22.78;68.21;94984.44;4321253;32;20247;-58
2022/08/18 09:44:13;;;;;;;2.03;1.93;;;;;;;22.87;67.55;94984.06;4340256;32;20182;-61
2022/08/18 09:46:57;;;;;;;1.40;1.40;;;;;;;22.90;66.95;94986.03;4321422;32;20180;-59
2022/08/18 09:49:25;;;;;;;1.10;1.10;;;;;;;22.92;67.33;94997.25;4354308;32;20189;-59
2022/08/18 09:52:00;;;;;;;1.43;1.43;;;;;;;22.90;67.52;94994.13;4363691;32;20194;-59
2022/08/18 09:54:33;;;;;;;1.90;1.73;;;;;;;22.94;67.53;94992.22;4338707;32;20204;-60
2022/08/18 09:57:18;;;;;;;1.30;1.30;;;;;;;23.02;67.33;94993.81;4310893;32;20225;-59
2022/08/18 10:00:17;;;;;;;1.00;1.00;;;;;;;22.97;67.32;94999.59;4316683;32;20281;-59
2022/08/18 10:02:59;;;;;;;1.33;1.33;;;;;;;23.03;67.55;95003.50;4301865;32;20245;-59
2022/08/18 10:05:28;;;;;;;1.50;1.50;;;;;;;23.04;67.55;95002.34;4335279;32;20185;-64
2022/08/18 10:08:16;;;;;;;1.70;1.60;;;;;;;23.04;66.43;94998.84;4344767;32;20215;-59
2022/08/18 10:11:29;;;;;;;3.17;2.70;;;;;;;22.93;66.56;94996.09;4348025;32;20240;-59
2022/08/18 10:14:24;;;;;;;2.13;2.03;;;;;;;23.10;67.11;94997.31;4317913;32;20214;-59
2022/08/18 10:17:02;;;;;;;2.17;2.07;;;;;;;23.02;66.77;95001.94;4343168;32;20223;-59
2022/08/18 10:19:54;;;;;;;4.87;2.73;;;;;;;23.11;65.80;95007.75;4331625;32;20188;-59
2022/08/18 10:22:45;;;;;;;1.53;1.43;;;;;;;23.14;65.70;95011.63;4292488;32;20189;-59
2022/08/18 10:25:28;;;;;;;1.50;1.40;;;;;;;23.06;65.61;95016.25;4358405;32;20197;-60
2022/08/18 10:27:57;;;;;;;1.23;1.23;;;;;;;23.21;66.38;95008.97;4327584;32;20189;-59
2022/08/18 10:30:35;;;;;;;1.90;1.80;;;;;;;23.34;65.99;95018.28;4345513;32;20189;-59
2022/08/18 10:33:06;;;;;;;0.83;0.83;;;;;;;23.30;66.08;95017.50;4352565;32;20201;-59
2022/08/18 10:35:36;;;;;;;1.43;1.43;;;;;;;23.27;65.17;95027.19;4329034;32;20193;-59
2022/08/18 10:38:16;;;;;;;1.97;1.97;;;;;;;23.23;65.71;95010.13;4336941;32;20192;-59
2022/08/18 10:40:55;;;;;;;1.23;1.23;;;;;;;23.33;67.11;95011.31;4319390;32;20246;-59
2022/08/18 10:43:41;;;;;;;1.07;1.07;;;;;;;23.25;66.98;95013.25;4351944;32;20235;-59
2022/08/18 10:46:22;;;;;;;2.00;1.90;;;;;;;23.27;65.90;94991.97;4348457;32;20189;-59
2022/08/18 10:49:20;;;;;;;2.07;1.27;;;;;;;23.39;66.46;94990.84;4349766;32;20287;-59
2022/08/18 10:52:07;;;;;;;1.33;1.33;;;;;;;23.48;65.95;94987.78;4344447;32;20322;-59
2022/08/18 10:54:55;;;;;;;2.27;2.17;;;;;;;23.55;65.66;94987.81;4338241;32;20240;-59
2022/08/18 10:57:42;;;;;;;1.43;1.43;;;;;;;23.67;65.99;94984.75;4348943;32;20224;-59
2022/08/18 11:00:18;;;;;;;2.43;1.50;;;;;;;23.78;64.43;94968.47;4356451;32;20256;-59
2022/08/18 11:03:26;;;;;;;1.30;1.30;;;;;;;23.83;64.06;94968.88;4344331;32;20260;-57
2022/08/18 11:06:19;;;;;;;3.70;2.20;;;;;;;23.80;65.38;94972.34;4317641;32;20207;-58
2022/08/18 11:08:50;;;;;;;1.90;1.90;;;;;;;24.04;63.11;94956.47;4338291;32;20197;-58
2022/08/18 11:11:26;;;;;;;1.83;1.80;;;;;;;24.01;63.10;94955.31;4292767;32;20295;-59
2022/08/18 11:14:42;;;;;;;1.33;1.33;;;;;;;23.97;63.38;94958.03;4337821;32;20184;-58
2022/08/18 11:17:17;;;;;;;1.70;1.67;;;;;;;23.87;64.84;94956.09;4343573;32;20189;-59
2022/08/18 11:19:45;;;;;;;1.33;1.33;;;;;;;23.89;64.83;94950.31;4326688;32;20245;-58
2022/08/18 11:22:27;;;;;;;1.13;1.13;;;;;;;23.88;63.40;94946.81;4345074;32;20196;-58
2022/08/18 11:25:17;;;;;;;2.03;1.93;;;;;;;23.98;62.90;94953.38;4343647;32;20180;-57
2022/08/18 11:27:56;;;;;;;1.43;1.33;;;;;;;23.93;63.56;94946.41;4319601;32;20232;-59
2022/08/18 11:30:40;;;;;;;1.33;1.33;;;;;;;24.09;62.74;94918.91;4345898;32;20219;-59
2022/08/18 11:33:14;;;;;;;1.87;1.77;;;;;;;24.06;63.29;94924.34;4344099;32;20215;-60
2022/08/18 11:35:56;;;;;;;1.43;1.43;;;;;;;24.15;63.79;94927.41;4341844;32;20204;-60
2022/08/18 11:38:22;;;;;;;1.07;1.07;;;;;;;24.17;64.24;94915.03;4337037;32;20207;-61
2022/08/18 11:40:53;;;;;;;1.20;1.20;;;;;;;24.18;63.01;94904.94;4336888;32;20323;-61
2022/08/18 11:43:35;;;;;;;2.17;2.03;;;;;;;24.32;62.59;94902.22;4344320;32;20288;-61
2022/08/18 11:46:32;;;;;;;1.43;1.43;;;;;;;24.52;61.93;94918.84;4353200;32;20226;-61
2022/08/18 11:49:17;;;;;;;1.40;1.40;;;;;;;24.51;61.86;94907.22;4304964;32;20192;-61
2022/08/18 11:52:41;;;;;;;1.73;1.63;;;;;;;24.58;61.10;94907.19;4335473;32;20240;-61
2022/08/18 11:55:19;;;;;;;1.63;1.63;;;;;;;24.50;61.16;94894.06;4321896;32;20276;-61
2022/08/18 11:57:56;;;;;;;1.47;1.40;;;;;;;24.52;61.35;94864.59;4330282;32;20282;-61
2022/08/18 12:00:40;;;;;;;1.47;1.47;;;;;;;24.54;62.08;94864.97;4334196;32;20235;-60
2022/08/18 12:03:38;;;;;;;1.23;1.23;;;;;;;24.67;61.64;94839.72;4328720;32;20201;-61
2022/08/18 12:06:21;;;;;;;0.93;0.93;;;;;;;24.62;61.39;94837.41;4309842;32;20285;-61
2022/08/18 12:08:56;;;;;;;2.10;2.00;;;;;;;24.54;61.84;94830.47;4289560;32;20206;-60
2022/08/18 12:11:29;;;;;;;1.87;1.83;;;;;;;24.52;62.09;94819.25;4340581;32;20189;-61
2022/08/18 12:14:21;;;;;;;1.80;1.70;;;;;;;24.55;62.22;94813.03;4325336;32;20245;-62
2022/08/18 12:16:50;;;;;;;1.60;1.60;;;;;;;24.68;62.23;94829.66;4320066;32;20193;-61
2022/08/18 12:19:22;;;;;;;2.33;2.23;;;;;;;24.67;62.11;94845.16;4316314;32;20292;-60
2022/08/18 12:22:00;;;;;;;2.27;1.93;;;;;;;24.70;61.70;94840.09;4332842;32;20319;-61
2022/08/18 12:24:31;;;;;;;1.70;1.60;;;;;;;24.65;62.26;94852.91;4341143;32;20220;-63
2022/08/18 12:26:58;;;;;;;1.70;1.70;;;;;;;24.64;62.44;94859.50;4341685;32;20185;-61
2022/08/18 12:29:40;;;;;;;1.53;1.53;;;;;;;24.65;62.17;94857.56;4332206;32;20262;-60
2022/08/18 12:32:08;;;;;;;1.07;1.07;;;;;;;24.78;61.91;94847.03;4331500;32;20189;-61
2022/08/18 12:34:34;;;;;;;2.10;2.00;;;;;;;24.75;61.96;94851.28;4345930;32;20248;-60
2022/08/18 12:37:02;;;;;;;1.37;1.37;;;;;;;24.60;62.38;94839.75;4341730;32;20241;-61
2022/08/18 12:39:30;;;;;;;1.43;1.43;;;;;;;24.68;62.12;94835.06;4335763;32;20193;-61
2022/08/18 12:41:58;;;;;;;10.87;1.83;;;;;;;24.78;62.05;94834.22;4335645;32;20193;-61